createdAt,value
2018-11-06T09:13:29.167Z,17.92
2018-11-06T09:14:01.231Z,17.94
2018-11-06T09:14:33.302Z,18.01
2018-11-06T09:15:05.337Z,17.99
2018-11-06T09:15:37.399Z,18.05
2018-11-06T09:16:09.443Z,18.01
2018-11-06T09:16:41.538Z,18.1
2018-11-06T09:17:14.185Z,18.06
2018-11-06T09:17:46.265Z,18.06
2018-11-06T09:18:18.336Z,18.11
2018-11-06T09:18:50.372Z,18.2
2018-11-06T09:19:22.461Z,18.14
2018-11-06T09:19:54.563Z,18.14
2018-11-06T09:20:26.619Z,18.29
2018-11-06T09:20:58.736Z,18.27
2018-11-06T09:21:30.817Z,18.17
2018-11-06T09:22:02.913Z,18.31
2018-11-06T09:22:34.976Z,18.34
2018-11-06T09:23:07.031Z,18.31
2018-11-06T09:23:39.089Z,18.26
2018-11-06T09:24:11.184Z,18.32
2018-11-06T09:24:43.262Z,18.31
2018-11-06T09:25:15.376Z,18.35
2018-11-06T09:25:47.435Z,18.32
2018-11-06T09:26:19.515Z,18.31
2018-11-06T09:26:51.555Z,18.38
2018-11-06T09:27:23.610Z,18.49
2018-11-06T09:27:55.708Z,18.42
2018-11-06T09:28:27.794Z,18.47
2018-11-06T09:28:59.865Z,18.42
2018-11-06T09:29:31.953Z,18.44
2018-11-06T09:30:04.048Z,18.45
2018-11-06T09:30:36.117Z,18.54
2018-11-06T09:31:08.267Z,18.56
2018-11-06T09:31:40.455Z,18.61
2018-11-06T09:32:12.530Z,18.59
2018-11-06T09:32:44.598Z,18.59
2018-11-06T09:33:16.671Z,18.65
2018-11-06T09:33:48.690Z,18.69
2018-11-06T09:34:20.784Z,18.6
2018-11-06T09:34:52.860Z,18.75
2018-11-06T09:35:24.902Z,18.72
2018-11-06T09:35:56.982Z,18.66
2018-11-06T09:36:29.045Z,18.76
2018-11-06T09:37:01.141Z,18.78
2018-11-06T09:37:33.218Z,18.78
2018-11-06T09:38:05.275Z,18.86
2018-11-06T09:38:37.327Z,18.89
2018-11-06T09:39:09.411Z,18.89
2018-11-06T09:39:41.518Z,18.91
2018-11-06T09:40:13.568Z,18.97
2018-11-06T09:40:45.630Z,18.96
2018-11-06T09:41:17.726Z,18.99
2018-11-06T09:41:49.860Z,19.06
2018-11-06T09:42:21.930Z,18.99
2018-11-06T09:42:54.200Z,18.96
2018-11-06T09:43:26.259Z,19.09
2018-11-06T09:43:58.325Z,19.1
2018-11-06T09:44:30.359Z,19.17
2018-11-06T09:45:02.434Z,19.19
2018-11-06T09:45:34.916Z,19.23
2018-11-06T09:46:07.214Z,19.24
2018-11-06T09:46:39.302Z,19.32
2018-11-06T09:47:11.373Z,19.31
2018-11-06T09:47:43.421Z,19.3
2018-11-06T09:48:15.524Z,19.3
2018-11-06T09:48:47.650Z,19.46
2018-11-06T09:49:19.723Z,19.34
2018-11-06T09:49:51.706Z,19.37
2018-11-06T09:50:24.116Z,19.43
2018-11-06T09:50:56.211Z,19.43
2018-11-06T09:51:28.294Z,19.55
2018-11-06T09:52:00.431Z,19.55
2018-11-06T09:52:32.580Z,19.5
2018-11-06T09:53:04.617Z,19.49
2018-11-06T09:53:36.671Z,19.53
2018-11-06T09:54:08.748Z,19.56
2018-11-06T09:54:40.809Z,19.57
2018-11-06T09:55:12.856Z,19.53
2018-11-06T09:55:44.946Z,19.68
2018-11-06T09:56:17.019Z,19.65
2018-11-06T09:56:49.078Z,19.68
2018-11-06T09:57:21.174Z,19.71
2018-11-06T09:57:53.255Z,19.71
2018-11-06T09:58:25.291Z,19.72
2018-11-06T09:58:57.871Z,19.75
2018-11-06T09:59:30.196Z,19.79
2018-11-06T10:00:02.252Z,19.78
2018-11-06T10:00:34.347Z,19.8
2018-11-06T10:01:06.427Z,19.8
2018-11-06T10:01:39.156Z,19.85
2018-11-06T10:02:11.225Z,19.89
2018-11-06T10:02:43.289Z,19.9
2018-11-06T10:03:15.320Z,20
2018-11-06T10:03:47.371Z,19.89
2018-11-06T10:04:19.469Z,19.89
2018-11-06T10:04:51.537Z,20
2018-11-06T10:05:23.620Z,20.01
2018-11-06T10:05:55.706Z,20.08
2018-11-06T10:06:27.928Z,20.07
2018-11-06T10:07:00.542Z,20.05
2018-11-06T10:07:32.353Z,20.18
2018-11-06T10:08:04.459Z,20.16
2018-11-06T10:08:36.539Z,20.16
2018-11-06T10:09:08.629Z,20.18
2018-11-06T10:09:40.697Z,20.18
2018-11-06T10:10:12.793Z,20.19
2018-11-06T10:10:44.877Z,20.22
2018-11-06T10:11:16.988Z,20.23
2018-11-06T10:11:49.032Z,20.25
2018-11-06T10:12:21.239Z,20.32
2018-11-06T10:12:53.309Z,20.3
2018-11-06T10:13:25.352Z,20.35
2018-11-06T10:13:57.429Z,20.44
2018-11-06T10:14:29.474Z,20.32
2018-11-06T10:15:01.542Z,20.4
2018-11-06T10:15:33.597Z,20.53
2018-11-06T10:16:05.698Z,20.41
2018-11-06T10:16:37.731Z,20.44
2018-11-06T10:17:09.800Z,20.51
2018-11-06T10:17:41.890Z,20.48
2018-11-06T10:18:13.975Z,20.54
2018-11-06T10:18:46.076Z,20.56
2018-11-06T10:19:18.162Z,20.56
2018-11-06T10:19:50.239Z,20.6
2018-11-06T10:20:22.324Z,20.57
2018-11-06T10:20:54.375Z,20.61
2018-11-06T10:21:26.425Z,20.57
2018-11-06T10:21:58.439Z,20.6
2018-11-06T10:22:30.485Z,20.57
2018-11-06T10:23:02.544Z,20.56
2018-11-06T10:23:34.602Z,20.6
2018-11-06T10:24:06.664Z,20.61
2018-11-06T10:24:38.701Z,20.63
2018-11-06T10:25:10.737Z,20.58
2018-11-06T10:25:42.803Z,20.66
2018-11-06T10:26:14.872Z,20.67
2018-11-06T10:26:46.969Z,20.57
2018-11-06T10:27:19.067Z,20.67
2018-11-06T10:27:51.144Z,20.64
2018-11-06T10:28:23.173Z,20.64
2018-11-06T10:28:55.244Z,20.61
2018-11-06T10:29:27.309Z,20.72
2018-11-06T10:29:59.369Z,20.64
2018-11-06T10:30:31.425Z,20.6
2018-11-06T10:31:03.521Z,20.71
2018-11-06T10:31:35.603Z,20.61
2018-11-06T10:32:07.633Z,20.66
2018-11-06T10:32:39.721Z,20.75
2018-11-06T10:33:11.829Z,20.74
2018-11-06T10:33:43.861Z,20.68
2018-11-06T10:34:15.883Z,20.6
2018-11-06T10:34:47.955Z,20.67
2018-11-06T10:35:20.021Z,20.61
2018-11-06T10:35:52.107Z,20.64
2018-11-06T10:36:24.184Z,20.63
2018-11-06T10:36:56.247Z,20.64
2018-11-06T10:37:28.345Z,20.67
2018-11-06T10:38:00.449Z,20.68
2018-11-06T10:38:32.638Z,20.66
2018-11-06T10:39:04.697Z,20.6
2018-11-06T10:39:36.747Z,20.68
2018-11-06T10:40:08.800Z,20.66
2018-11-06T10:40:40.845Z,20.64
2018-11-06T10:41:12.946Z,20.64
2018-11-06T10:41:45.011Z,20.64
2018-11-06T10:42:17.068Z,20.67
2018-11-06T10:42:49.108Z,20.58
2018-11-06T10:43:21.159Z,20.63
2018-11-06T10:43:53.221Z,20.63
2018-11-06T10:44:25.280Z,20.61
2018-11-06T10:44:57.395Z,20.63
2018-11-06T10:45:29.424Z,20.56
2018-11-06T10:46:01.516Z,20.56
2018-11-06T10:46:33.605Z,20.58
2018-11-06T10:47:05.680Z,20.6
2018-11-06T10:47:37.741Z,20.58
2018-11-06T10:48:09.771Z,20.6
2018-11-06T10:48:41.817Z,20.57
2018-11-06T10:49:13.890Z,20.6
2018-11-06T10:49:45.908Z,20.67
2018-11-06T10:50:18.001Z,20.6
2018-11-06T10:50:50.084Z,20.54
2018-11-06T10:51:22.142Z,20.53
2018-11-06T10:51:54.286Z,20.56
2018-11-06T10:52:26.305Z,20.58
2018-11-06T10:52:58.342Z,20.54
2018-11-06T10:53:30.432Z,20.56
2018-11-06T10:54:02.506Z,20.44
2018-11-06T10:54:34.597Z,20.49
2018-11-06T10:55:06.677Z,20.46
2018-11-06T10:55:38.734Z,20.49
2018-11-06T10:56:10.757Z,20.53
2018-11-06T10:56:42.838Z,20.49
2018-11-06T10:57:14.912Z,20.49
2018-11-06T10:57:46.970Z,20.49
2018-11-06T10:58:19.181Z,20.48
2018-11-06T10:58:51.141Z,20.48
2018-11-06T10:59:23.163Z,20.49
2018-11-06T10:59:55.236Z,20.42
2018-11-06T11:00:27.312Z,20.51
2018-11-06T11:00:59.341Z,20.41
2018-11-06T11:01:31.486Z,20.49
2018-11-06T11:02:03.564Z,20.42
2018-11-06T11:02:35.659Z,20.44
2018-11-06T11:03:07.735Z,20.42
2018-11-06T11:03:39.850Z,20.41
2018-11-06T11:04:12.330Z,20.41
2018-11-06T11:04:44.657Z,20.38
2018-11-06T11:05:17.172Z,20.46
2018-11-06T11:05:49.251Z,20.38
2018-11-06T11:06:21.340Z,20.38
2018-11-06T11:06:53.416Z,20.38
2018-11-06T11:07:25.487Z,20.38
2018-11-06T11:07:57.563Z,20.4
2018-11-06T11:08:30.524Z,20.38
2018-11-06T11:09:02.619Z,20.4
2018-11-06T11:09:34.712Z,20.38
2018-11-06T11:10:06.803Z,20.44
2018-11-06T11:10:38.854Z,20.44
2018-11-06T11:11:10.934Z,20.38
2018-11-06T11:11:42.969Z,20.34
2018-11-06T11:12:15.034Z,20.44
2018-11-06T11:12:47.052Z,20.41
2018-11-06T11:13:19.105Z,20.42
2018-11-06T11:13:51.193Z,20.44
2018-11-06T11:14:23.235Z,20.41
2018-11-06T11:14:55.322Z,20.53
2018-11-06T11:15:27.369Z,20.46
2018-11-06T11:15:59.477Z,20.42
2018-11-06T11:16:31.527Z,20.41
2018-11-06T11:17:03.601Z,20.42
2018-11-06T11:17:35.643Z,20.4
2018-11-06T11:18:07.708Z,20.48
2018-11-06T11:18:39.728Z,20.42
2018-11-06T11:19:11.781Z,20.42
2018-11-06T11:19:43.826Z,20.51
2018-11-06T11:20:15.939Z,20.41
2018-11-06T11:20:48.889Z,20.49
2018-11-06T11:21:20.970Z,20.57
2018-11-06T11:21:53.018Z,20.57
2018-11-06T11:22:25.086Z,20.58
2018-11-06T11:22:57.161Z,20.57
2018-11-06T11:23:29.247Z,20.57
2018-11-06T11:24:01.305Z,20.58
2018-11-06T11:24:33.392Z,20.58
2018-11-06T11:25:05.428Z,20.61
2018-11-06T11:25:37.548Z,20.68
2018-11-06T11:26:09.765Z,20.68
2018-11-06T11:26:41.845Z,20.66
2018-11-06T11:27:13.881Z,20.68
2018-11-06T11:27:45.947Z,20.76
2018-11-06T11:28:18.017Z,20.79
2018-11-06T11:29:10.150Z,20.74
2018-11-06T11:29:42.265Z,20.78
2018-11-06T11:30:14.336Z,20.76
2018-11-06T11:30:46.406Z,20.76
2018-11-06T11:31:18.476Z,20.83
2018-11-06T11:31:50.566Z,20.93
2018-11-06T11:32:22.601Z,20.9
2018-11-06T11:32:54.654Z,20.91
2018-11-06T11:33:26.732Z,20.94
2018-11-06T11:33:58.801Z,20.97
2018-11-06T11:34:30.911Z,21
2018-11-06T11:35:02.964Z,21.03
2018-11-06T11:35:35.014Z,20.97
2018-11-06T11:36:07.092Z,21.01
2018-11-06T11:36:39.185Z,21.09
2018-11-06T11:37:11.279Z,20.94
2018-11-06T11:37:43.432Z,21.12
2018-11-06T11:38:15.639Z,21.01
2018-11-06T11:38:47.695Z,21.06
2018-11-06T11:39:19.739Z,21.18
2018-11-06T11:39:51.819Z,21.15
2018-11-06T11:40:23.879Z,21.22
2018-11-06T11:40:55.931Z,21.21
2018-11-06T11:41:27.946Z,21.15
2018-11-06T11:42:00.017Z,21.23
2018-11-06T11:42:32.124Z,21.25
2018-11-06T11:43:04.162Z,21.21
2018-11-06T11:43:36.240Z,21.3
2018-11-06T11:44:08.286Z,21.34
2018-11-06T11:44:40.333Z,21.33
2018-11-06T11:45:12.370Z,21.3
2018-11-06T11:45:44.535Z,21.34
2018-11-06T11:46:16.568Z,21.34
2018-11-06T11:46:48.621Z,21.37
2018-11-06T11:47:20.651Z,21.36
2018-11-06T11:47:52.695Z,21.52
2018-11-06T11:48:24.722Z,21.48
2018-11-06T11:48:56.775Z,21.46
2018-11-06T11:49:28.836Z,21.51
2018-11-06T11:50:00.844Z,21.51
2018-11-06T11:50:32.913Z,21.56
2018-11-06T11:51:05.042Z,21.48
2018-11-06T11:51:37.087Z,21.59
2018-11-06T11:52:09.108Z,21.59
2018-11-06T11:52:41.193Z,21.53
2018-11-06T11:53:13.228Z,21.53
2018-11-06T11:53:45.308Z,21.67
2018-11-06T11:54:17.413Z,21.66
2018-11-06T11:54:49.494Z,21.66
2018-11-06T11:55:21.507Z,21.68
2018-11-06T11:55:53.583Z,21.67
2018-11-06T11:56:25.651Z,21.77
2018-11-06T11:56:57.726Z,21.7
2018-11-06T11:57:29.814Z,21.76
2018-11-06T11:58:01.813Z,21.8
2018-11-06T11:58:33.928Z,21.83
2018-11-06T11:59:06.014Z,21.86
2018-11-06T11:59:38.074Z,21.89
2018-11-06T12:00:10.199Z,21.86
2018-11-06T12:00:42.501Z,21.93
2018-11-06T12:01:14.501Z,21.94
2018-11-06T12:01:46.583Z,21.99
2018-11-06T12:02:18.699Z,21.97
2018-11-06T12:02:50.860Z,22
2018-11-06T12:03:22.883Z,22.11
2018-11-06T12:03:54.946Z,22.05
2018-11-06T12:04:27.007Z,22.05
2018-11-06T12:04:59.099Z,22.05
2018-11-06T12:05:31.165Z,22.12
2018-11-06T12:06:03.262Z,22.09
2018-11-06T12:06:35.338Z,22.14
2018-11-06T12:07:07.409Z,22.24
2018-11-06T12:07:39.487Z,22.18
2018-11-06T12:08:11.545Z,22.2
2018-11-06T12:08:43.599Z,22.22
2018-11-06T12:09:15.668Z,22.16
2018-11-06T12:09:47.762Z,22.24
2018-11-06T12:10:19.810Z,22.26
2018-11-06T12:10:51.874Z,22.24
2018-11-06T12:11:23.975Z,22.2
2018-11-06T12:11:56.020Z,22.3
2018-11-06T12:12:28.062Z,22.29
2018-11-06T12:13:00.089Z,22.27
2018-11-06T12:13:32.135Z,22.3
2018-11-06T12:14:04.147Z,22.27
2018-11-06T12:14:36.400Z,22.34
2018-11-06T12:15:08.502Z,22.36
2018-11-06T12:15:40.557Z,22.31
2018-11-06T12:16:12.610Z,22.33
2018-11-06T12:16:44.628Z,22.33
2018-11-06T12:17:16.728Z,22.29
2018-11-06T12:17:48.823Z,22.33
2018-11-06T12:18:20.967Z,22.34
2018-11-06T12:18:53.205Z,22.31
2018-11-06T12:19:25.250Z,22.3
2018-11-06T12:19:57.320Z,22.34
2018-11-06T12:20:29.429Z,22.34
2018-11-06T12:21:01.511Z,22.36
2018-11-06T12:21:33.547Z,22.42
2018-11-06T12:22:05.621Z,22.34
2018-11-06T12:22:37.733Z,22.36
2018-11-06T12:23:09.794Z,22.45
2018-11-06T12:23:41.913Z,22.46
2018-11-06T12:24:14.140Z,22.42
2018-11-06T12:24:46.342Z,22.41
2018-11-06T12:25:18.594Z,22.46
2018-11-06T12:25:51.535Z,22.49
2018-11-06T12:26:24.451Z,22.48
2018-11-06T12:26:56.529Z,22.45
2018-11-06T12:27:28.599Z,22.51
2018-11-06T12:28:00.704Z,22.51
2018-11-06T12:28:32.771Z,22.55
2018-11-06T12:29:04.854Z,22.57
2018-11-06T12:29:36.940Z,22.64
2018-11-06T12:30:09.079Z,22.63
2018-11-06T12:30:41.160Z,22.54
2018-11-06T12:31:13.247Z,22.59
2018-11-06T12:31:45.385Z,22.61
2018-11-06T12:32:17.443Z,22.66
2018-11-06T12:32:49.532Z,22.71
2018-11-06T12:33:21.603Z,22.75
2018-11-06T12:33:53.622Z,22.7
2018-11-06T12:34:25.738Z,22.75
2018-11-06T12:34:57.795Z,22.79
2018-11-06T12:35:29.824Z,22.66
2018-11-06T12:36:01.891Z,22.79
2018-11-06T12:36:34.041Z,22.86
2018-11-06T12:37:06.158Z,22.81
2018-11-06T12:37:38.146Z,22.79
2018-11-06T12:38:10.218Z,22.82
2018-11-06T12:38:42.253Z,22.86
2018-11-06T12:39:14.252Z,22.91
2018-11-06T12:39:46.357Z,22.89
2018-11-06T12:40:18.428Z,22.92
2018-11-06T12:40:50.492Z,22.94
2018-11-06T12:41:22.631Z,22.91
2018-11-06T12:41:54.756Z,22.91
2018-11-06T12:42:26.836Z,22.94
2018-11-06T12:42:58.950Z,22.94
2018-11-06T12:43:31.187Z,22.96
2018-11-06T12:44:03.222Z,22.91
2018-11-06T12:44:35.309Z,22.91
2018-11-06T12:45:07.371Z,22.94
2018-11-06T12:45:39.454Z,22.92
2018-11-06T12:46:11.527Z,22.92
2018-11-06T12:46:43.589Z,22.85
2018-11-06T12:47:15.631Z,22.88
2018-11-06T12:47:47.713Z,22.92
2018-11-06T12:48:19.775Z,22.85
2018-11-06T12:48:51.856Z,22.79
2018-11-06T12:49:23.925Z,22.84
2018-11-06T12:49:55.968Z,22.84
2018-11-06T12:50:28.130Z,22.85
2018-11-06T12:51:00.134Z,22.86
2018-11-06T12:51:32.225Z,22.79
2018-11-06T12:52:04.318Z,22.78
2018-11-06T12:52:36.391Z,22.76
2018-11-06T12:53:08.454Z,22.73
2018-11-06T12:53:40.520Z,22.75
2018-11-06T12:54:12.580Z,22.73
2018-11-06T12:54:44.626Z,22.67
2018-11-06T12:55:16.691Z,22.7
2018-11-06T12:55:48.737Z,22.7
2018-11-06T12:56:20.906Z,22.7
2018-11-06T12:56:52.901Z,22.71
2018-11-06T12:57:24.988Z,22.75
2018-11-06T12:57:57.070Z,22.61
2018-11-06T12:58:29.110Z,22.59
2018-11-06T12:59:01.202Z,22.61
2018-11-06T12:59:33.255Z,22.64
2018-11-06T13:00:05.326Z,22.66
2018-11-06T13:00:37.372Z,22.61
2018-11-06T13:01:09.458Z,22.61
2018-11-06T13:01:41.538Z,22.57
2018-11-06T13:02:13.598Z,22.51
2018-11-06T13:02:45.665Z,22.46
2018-11-06T13:03:17.775Z,22.45
2018-11-06T13:03:49.868Z,22.54
2018-11-06T13:04:21.918Z,22.49
2018-11-06T13:04:54.001Z,22.52
2018-11-06T13:05:26.089Z,22.46
2018-11-06T13:05:58.135Z,22.46
2018-11-06T13:06:30.139Z,22.44
2018-11-06T13:07:02.167Z,22.38
2018-11-06T13:07:34.485Z,22.42
2018-11-06T13:08:06.567Z,22.38
2018-11-06T13:08:38.612Z,22.36
2018-11-06T13:09:10.690Z,22.38
2018-11-06T13:09:42.768Z,22.34
2018-11-06T13:10:14.850Z,22.36
2018-11-06T13:10:46.878Z,22.33
2018-11-06T13:11:18.913Z,22.36
2018-11-06T13:11:50.983Z,22.24
2018-11-06T13:12:23.099Z,22.24
2018-11-06T13:12:55.155Z,22.27
2018-11-06T13:13:27.224Z,22.24
2018-11-06T13:13:59.287Z,22.31
2018-11-06T13:14:31.377Z,22.22
2018-11-06T13:15:03.402Z,22.23
2018-11-06T13:15:35.456Z,22.27
2018-11-06T13:16:07.791Z,22.09
2018-11-06T13:16:39.810Z,22.09
2018-11-06T13:17:11.929Z,22.24
2018-11-06T13:17:43.955Z,22.16
2018-11-06T13:18:16.021Z,22.12
2018-11-06T13:18:48.100Z,22.14
2018-11-06T13:19:20.181Z,22.08
2018-11-06T13:19:52.215Z,22.09
2018-11-06T13:20:24.323Z,22.08
2018-11-06T13:20:56.389Z,22.08
2018-11-06T13:21:28.456Z,22.08
2018-11-06T13:22:00.518Z,22
2018-11-06T13:22:32.588Z,22
2018-11-06T13:23:04.630Z,22
2018-11-06T13:23:36.720Z,21.97
2018-11-06T13:24:08.813Z,21.97
2018-11-06T13:24:40.879Z,21.96
2018-11-06T13:25:12.918Z,21.92
2018-11-06T13:25:45.084Z,21.93
2018-11-06T13:26:17.235Z,21.9
2018-11-06T13:26:49.175Z,21.92
2018-11-06T13:27:21.283Z,21.82
2018-11-06T13:27:53.326Z,21.74
2018-11-06T13:28:25.454Z,21.8
2018-11-06T13:28:57.485Z,21.82
2018-11-06T13:29:29.635Z,21.78
2018-11-06T13:30:01.771Z,21.9
2018-11-06T13:30:33.845Z,21.85
2018-11-06T13:31:06.459Z,21.83
2018-11-06T13:31:38.570Z,21.71
2018-11-06T13:32:10.680Z,21.76
2018-11-06T13:32:42.814Z,21.78
2018-11-06T13:33:14.904Z,21.73
2018-11-06T13:33:46.984Z,21.71
2018-11-06T13:34:19.169Z,21.76
2018-11-06T13:34:51.254Z,21.68
2018-11-06T13:35:23.332Z,21.77
2018-11-06T13:35:55.420Z,21.67
2018-11-06T13:36:27.450Z,21.71
2018-11-06T13:36:59.508Z,21.68
2018-11-06T13:37:31.610Z,21.66
2018-11-06T13:38:03.672Z,21.64
2018-11-06T13:38:35.753Z,21.56
2018-11-06T13:39:07.811Z,21.64
2018-11-06T13:39:39.902Z,21.58
2018-11-06T13:40:11.964Z,21.67
2018-11-06T13:40:44.051Z,21.55
2018-11-06T13:41:16.148Z,21.53
2018-11-06T13:41:48.162Z,21.53
2018-11-06T13:42:20.291Z,21.49
2018-11-06T13:42:52.736Z,21.53
2018-11-06T13:43:25.083Z,21.61
2018-11-06T13:43:57.218Z,21.52
2018-11-06T13:44:29.608Z,21.56
2018-11-06T13:45:01.643Z,21.53
2018-11-06T13:45:33.496Z,21.48
2018-11-06T13:46:05.430Z,21.52
2018-11-06T13:46:37.525Z,21.53
2018-11-06T13:47:09.607Z,21.49
2018-11-06T13:47:41.700Z,21.51
2018-11-06T13:48:13.779Z,21.45
2018-11-06T13:48:45.816Z,21.51
2018-11-06T13:49:17.914Z,21.52
2018-11-06T13:49:49.921Z,21.49
2018-11-06T13:50:21.959Z,21.49
2018-11-06T13:50:54.023Z,21.49
2018-11-06T13:51:26.068Z,21.49
2018-11-06T13:51:58.196Z,21.46
2018-11-06T13:52:30.245Z,21.48
2018-11-06T13:53:02.283Z,21.49
2018-11-06T13:53:34.312Z,21.49
2018-11-06T13:54:06.390Z,21.37
2018-11-06T13:54:38.447Z,21.46
2018-11-06T13:55:10.529Z,21.48
2018-11-06T13:55:42.556Z,21.45
2018-11-06T13:56:14.640Z,21.51
2018-11-06T13:56:46.730Z,21.46
2018-11-06T13:57:18.864Z,21.51
2018-11-06T13:57:50.939Z,21.49
2018-11-06T13:58:23.011Z,21.48
2018-11-06T13:58:55.076Z,21.46
2018-11-06T13:59:27.139Z,21.48
2018-11-06T13:59:59.227Z,21.52
2018-11-06T14:00:31.409Z,21.48
2018-11-06T14:01:03.493Z,21.52
2018-11-06T14:01:35.693Z,21.45
2018-11-06T14:02:07.762Z,21.48
2018-11-06T14:02:39.844Z,21.51
2018-11-06T14:03:11.883Z,21.51
2018-11-06T14:03:43.966Z,21.48
2018-11-06T14:04:16.027Z,21.51
2018-11-06T14:04:48.113Z,21.52
2018-11-06T14:05:20.216Z,21.52
2018-11-06T14:05:52.297Z,21.46
2018-11-06T14:06:24.384Z,21.41
2018-11-06T14:06:56.460Z,21.46
2018-11-06T14:07:28.507Z,21.37
2018-11-06T14:08:00.527Z,21.38
2018-11-06T14:08:32.605Z,21.36
2018-11-06T14:09:04.664Z,21.33
2018-11-06T14:09:36.746Z,21.36
2018-11-06T14:10:08.860Z,21.36
2018-11-06T14:10:40.911Z,21.34
2018-11-06T14:11:12.955Z,21.3
2018-11-06T14:11:45.040Z,21.33
2018-11-06T14:12:17.091Z,21.25
2018-11-06T14:12:49.166Z,21.25
2018-11-06T14:13:21.219Z,21.27
2018-11-06T14:13:53.254Z,21.25
2018-11-06T14:14:25.282Z,21.22
2018-11-06T14:14:57.318Z,21.19
2018-11-06T14:15:29.382Z,21.18
2018-11-06T14:16:01.412Z,21.21
2018-11-06T14:16:33.508Z,21.19
2018-11-06T14:17:05.566Z,21.19
2018-11-06T14:17:37.667Z,21.16
2018-11-06T14:18:09.747Z,21.15
2018-11-06T14:18:41.817Z,21.16
2018-11-06T14:19:13.885Z,21.08
2018-11-06T14:19:45.961Z,21.04
2018-11-06T14:20:18.047Z,21.06
2018-11-06T14:20:50.134Z,21.08
2018-11-06T14:21:22.219Z,21.06
2018-11-06T14:21:54.286Z,20.98
2018-11-06T14:22:26.444Z,21.04
2018-11-06T14:22:58.523Z,21.01
2018-11-06T14:23:30.590Z,20.98
2018-11-06T14:24:02.661Z,21.01
2018-11-06T14:24:34.692Z,21.03
2018-11-06T14:25:06.784Z,20.98
2018-11-06T14:25:38.838Z,21.04
2018-11-06T14:26:10.954Z,21
2018-11-06T14:26:43.021Z,21.04
2018-11-06T14:27:15.207Z,20.98
2018-11-06T14:27:47.218Z,20.91
2018-11-06T14:28:19.269Z,20.96
2018-11-06T14:28:51.344Z,21.01
2018-11-06T14:29:23.421Z,20.93
2018-11-06T14:29:55.495Z,20.94
2018-11-06T14:30:27.624Z,20.86
2018-11-06T14:30:59.666Z,20.93
2018-11-06T14:31:31.849Z,20.91
2018-11-06T14:32:03.895Z,20.85
2018-11-06T14:32:35.967Z,20.85
2018-11-06T14:33:08.062Z,20.81
2018-11-06T14:33:40.150Z,20.81
2018-11-06T14:34:12.234Z,20.82
2018-11-06T14:34:44.252Z,20.76
2018-11-06T14:35:16.333Z,20.74
2018-11-06T14:35:48.418Z,20.75
2018-11-06T14:36:20.499Z,20.67
2018-11-06T14:36:52.560Z,20.71
2018-11-06T14:37:24.633Z,20.76
2018-11-06T14:37:56.698Z,20.76
2018-11-06T14:38:28.781Z,20.66
2018-11-06T14:39:00.873Z,20.75
2018-11-06T14:39:32.955Z,20.71
2018-11-06T14:40:05.085Z,20.71
2018-11-06T14:40:37.168Z,20.64
2018-11-06T14:41:09.240Z,20.61
2018-11-06T14:41:41.300Z,20.57
2018-11-06T14:42:13.388Z,20.6
2018-11-06T14:42:45.565Z,20.61
2018-11-06T14:43:17.595Z,20.57
2018-11-06T14:43:49.648Z,20.49
2018-11-06T14:44:21.719Z,20.58
2018-11-06T14:44:53.815Z,20.6
2018-11-06T14:45:25.877Z,20.48
2018-11-06T14:45:57.960Z,20.48
2018-11-06T14:46:30.035Z,20.54
2018-11-06T14:47:02.116Z,20.51
2018-11-06T14:47:34.167Z,20.42
2018-11-06T14:48:06.275Z,20.51
2018-11-06T14:48:38.717Z,20.4
2018-11-06T14:49:11.361Z,20.38
2018-11-06T14:49:43.436Z,20.38
2018-11-06T14:50:15.489Z,20.46
2018-11-06T14:50:47.802Z,20.4
2018-11-06T14:51:19.828Z,20.32
2018-11-06T14:51:51.901Z,20.42
2018-11-06T14:52:23.962Z,20.34
2018-11-06T14:52:56.015Z,20.35
2018-11-06T14:53:28.078Z,20.34
2018-11-06T14:54:00.148Z,20.38
2018-11-06T14:54:32.230Z,20.26
2018-11-06T14:55:04.291Z,20.35
2018-11-06T14:55:36.349Z,20.23
2018-11-06T14:56:08.437Z,20.27
2018-11-06T14:56:40.720Z,20.27
2018-11-06T14:57:12.795Z,20.3
2018-11-06T14:57:44.824Z,20.2
2018-11-06T14:58:16.915Z,20.15
2018-11-06T14:58:49.002Z,20.16
2018-11-06T14:59:21.097Z,20.15
2018-11-06T14:59:53.194Z,20.16
2018-11-06T15:00:25.231Z,20.12
2018-11-06T15:00:57.276Z,20.22
2018-11-06T15:01:29.352Z,20.18
2018-11-06T15:02:01.430Z,20.19
2018-11-06T15:02:33.518Z,20.16
2018-11-06T15:03:05.585Z,20.08
2018-11-06T15:03:37.677Z,20.16
2018-11-06T15:04:09.771Z,20.2
2018-11-06T15:04:41.822Z,20.08
2018-11-06T15:05:13.858Z,20.11
2018-11-06T15:05:45.953Z,20.16
2018-11-06T15:06:18.072Z,20.08
2018-11-06T15:06:50.183Z,20.1
2018-11-06T15:07:22.263Z,20.1
2018-11-06T15:07:54.364Z,20.04
2018-11-06T15:08:26.460Z,20.02
2018-11-06T15:08:58.529Z,20.07
2018-11-06T15:09:30.599Z,20.04
2018-11-06T15:10:02.651Z,20
2018-11-06T15:10:34.700Z,20.05
2018-11-06T15:11:06.748Z,19.97
2018-11-06T15:11:38.845Z,19.95
2018-11-06T15:12:10.894Z,20.04
2018-11-06T15:12:43.010Z,19.89
2018-11-06T15:13:15.336Z,20
2018-11-06T15:13:47.424Z,19.95
2018-11-06T15:14:19.494Z,19.89
2018-11-06T15:14:51.552Z,19.9
2018-11-06T15:15:23.684Z,19.87
2018-11-06T15:15:55.752Z,19.83
2018-11-06T15:16:27.827Z,19.9
2018-11-06T15:16:59.892Z,19.86
2018-11-06T15:17:31.974Z,19.87
2018-11-06T15:18:04.063Z,19.86
2018-11-06T15:18:36.152Z,19.83
2018-11-06T15:19:08.175Z,19.85
2018-11-06T15:19:40.234Z,19.78
2018-11-06T15:20:12.293Z,19.82
2018-11-06T15:20:44.374Z,19.85
2018-11-06T15:21:16.542Z,19.79
2018-11-06T15:21:48.622Z,19.8
2018-11-06T15:22:20.691Z,19.83
2018-11-06T15:22:52.778Z,19.82
2018-11-06T15:23:24.848Z,19.78
2018-11-06T15:23:56.940Z,19.71
2018-11-06T15:24:29.030Z,19.8
2018-11-06T15:25:01.066Z,19.72
2018-11-06T15:25:33.146Z,19.72
2018-11-06T15:26:05.234Z,19.75
2018-11-06T15:26:37.370Z,19.75
2018-11-06T15:27:09.506Z,19.71
2018-11-06T15:27:41.592Z,19.74
2018-11-06T15:28:13.668Z,19.74
2018-11-06T15:28:45.734Z,19.68
2018-11-06T15:29:17.840Z,19.68
2018-11-06T15:29:49.941Z,19.67
2018-11-06T15:30:21.969Z,19.64
2018-11-06T15:30:54.018Z,19.7
2018-11-06T15:31:26.063Z,19.7
2018-11-06T15:31:58.133Z,19.72
2018-11-06T15:32:30.215Z,19.67
2018-11-06T15:33:02.303Z,19.61
2018-11-06T15:33:34.387Z,19.64
2018-11-06T15:34:06.458Z,19.64
2018-11-06T15:34:38.538Z,19.61
2018-11-06T15:35:10.629Z,19.57
2018-11-06T15:35:42.704Z,19.6
2018-11-06T15:36:14.756Z,19.49
2018-11-06T15:36:46.844Z,19.56
2018-11-06T15:37:18.945Z,19.5
2018-11-06T15:37:51.036Z,19.53
2018-11-06T15:38:23.123Z,19.5
2018-11-06T15:38:55.195Z,19.56
2018-11-06T15:39:27.294Z,19.49
2018-11-06T15:39:59.348Z,19.52
2018-11-06T15:40:31.414Z,19.43
2018-11-06T15:41:03.590Z,19.52
2018-11-06T15:41:35.906Z,19.47
2018-11-06T15:42:08.324Z,19.46
2018-11-06T15:42:40.306Z,19.47
2018-11-06T15:43:12.385Z,19.5
2018-11-06T15:43:44.441Z,19.46
2018-11-06T15:44:16.511Z,19.46
2018-11-06T15:44:48.599Z,19.49
2018-11-06T15:45:20.644Z,19.46
2018-11-06T15:45:52.699Z,19.55
2018-11-06T15:46:24.768Z,19.56
2018-11-06T15:46:56.864Z,19.43
2018-11-06T15:47:28.951Z,19.43
2018-11-06T15:48:01.031Z,19.45
2018-11-06T15:48:33.188Z,19.45
2018-11-06T15:49:05.239Z,19.43
2018-11-06T15:49:37.287Z,19.43
2018-11-06T15:50:09.361Z,19.42
2018-11-06T15:50:41.413Z,19.46
2018-11-06T15:51:13.491Z,19.38
2018-11-06T15:51:45.558Z,19.46
2018-11-06T15:52:17.645Z,19.46
2018-11-06T15:52:49.678Z,19.43
2018-11-06T15:53:21.727Z,19.3
2018-11-06T15:53:53.787Z,19.35
2018-11-06T15:54:25.852Z,19.34
2018-11-06T15:54:58.006Z,19.32
2018-11-06T15:55:30.002Z,19.37
2018-11-06T15:56:02.030Z,19.37
2018-11-06T15:56:34.084Z,19.3
2018-11-06T15:57:06.160Z,19.32
2018-11-06T15:57:38.238Z,19.27
2018-11-06T15:58:10.297Z,19.38
2018-11-06T15:58:42.353Z,19.28
2018-11-06T15:59:14.395Z,19.25
2018-11-06T15:59:46.481Z,19.31
2018-11-06T16:00:18.532Z,19.32
2018-11-06T16:00:50.694Z,19.31
2018-11-06T16:01:22.708Z,19.27
2018-11-06T16:01:54.923Z,19.31
2018-11-06T16:02:26.989Z,19.24
2018-11-06T16:02:59.114Z,19.28
2018-11-06T16:03:31.131Z,19.23
2018-11-06T16:04:03.241Z,19.3
2018-11-06T16:04:35.296Z,19.17
2018-11-06T16:05:07.348Z,19.23
2018-11-06T16:05:39.438Z,19.09
2018-11-06T16:06:11.492Z,19.25
2018-11-06T16:06:43.561Z,19.23
2018-11-06T16:07:15.600Z,19.12
2018-11-06T16:07:47.697Z,19.23
2018-11-06T16:08:19.832Z,19.19